createdAt,value
2023-04-02T00:00:11.462Z,4.50
2023-04-02T00:03:09.127Z,6.10
2023-04-02T00:05:52.231Z,5.60
2023-04-02T00:08:41.253Z,6.20
2023-04-02T00:11:10.311Z,5.70
2023-04-02T00:13:44.761Z,5.10
2023-04-02T00:16:24.128Z,5.50
2023-04-02T00:18:55.885Z,5.80
2023-04-02T00:21:30.590Z,7.10
2023-04-02T00:24:02.012Z,8.30
2023-04-02T00:26:41.061Z,7.20
2023-04-02T00:29:13.072Z,7.20
2023-04-02T00:32:00.090Z,6.20
2023-04-02T00:34:33.635Z,6.00
2023-04-02T00:37:02.050Z,6.00
2023-04-02T00:39:34.883Z,6.50
2023-04-02T00:42:05.582Z,5.80
2023-04-02T00:44:44.668Z,6.40
2023-04-02T00:47:37.600Z,6.20
2023-04-02T00:50:19.129Z,5.80
2023-04-02T00:52:51.060Z,5.20
2023-04-02T00:55:31.278Z,5.70
2023-04-02T00:58:01.440Z,7.20
2023-04-02T01:00:36.330Z,6.10
2023-04-02T01:03:19.574Z,6.20
2023-04-02T01:05:50.497Z,5.80
2023-04-02T01:08:27.522Z,5.60
2023-04-02T01:11:07.751Z,5.20
2023-04-02T01:13:48.426Z,5.70
2023-04-02T01:16:29.541Z,5.60
2023-04-02T01:19:13.823Z,5.50
2023-04-02T01:21:54.293Z,4.80
2023-04-02T01:24:25.407Z,5.50
2023-04-02T01:27:03.809Z,4.70
2023-04-02T01:29:43.390Z,5.40
2023-04-02T01:32:17.838Z,5.10
2023-04-02T01:34:47.742Z,5.50
2023-04-02T01:37:32.342Z,5.30
2023-04-02T01:40:07.152Z,5.00
2023-04-02T01:43:02.161Z,5.90
2023-04-02T01:45:30.491Z,4.50
2023-04-02T01:47:58.866Z,4.60
2023-04-02T01:50:37.446Z,4.50
2023-04-02T01:53:12.994Z,5.10
2023-04-02T01:56:00.105Z,4.80
2023-04-02T01:58:34.204Z,5.40
2023-04-02T02:01:12.854Z,5.30
2023-04-02T02:03:43.052Z,5.00
2023-04-02T02:06:16.768Z,5.10
2023-04-02T02:09:05.073Z,4.30
2023-04-02T02:11:36.536Z,4.90
2023-04-02T02:14:18.804Z,5.00
2023-04-02T02:16:47.911Z,4.50
2023-04-02T02:19:29.478Z,4.60
2023-04-02T02:22:09.562Z,4.20
2023-04-02T02:24:38.026Z,4.20
2023-04-02T02:27:11.914Z,4.90
2023-04-02T02:29:41.185Z,4.70
2023-04-02T02:32:11.371Z,5.40
2023-04-02T02:34:48.870Z,4.90
2023-04-02T02:37:23.714Z,4.30
2023-04-02T02:39:58.108Z,5.10
2023-04-02T02:42:37.092Z,4.70
2023-04-02T02:45:16.781Z,4.50
2023-04-02T02:47:45.628Z,4.80
2023-04-02T02:50:26.211Z,4.90
2023-04-02T02:52:58.109Z,4.80
2023-04-02T02:55:37.088Z,4.50
2023-04-02T02:58:19.115Z,4.60
2023-04-02T03:00:47.226Z,4.50
2023-04-02T03:03:23.308Z,4.60
2023-04-02T03:06:01.763Z,4.40
2023-04-02T03:08:42.342Z,4.20
2023-04-02T03:11:57.379Z,4.00
2023-04-02T03:14:41.096Z,3.90
2023-04-02T03:17:21.028Z,4.50
2023-04-02T03:19:59.470Z,4.20
2023-04-02T03:22:38.853Z,3.90
2023-04-02T03:25:25.940Z,4.10
2023-04-02T03:28:02.149Z,3.90
2023-04-02T03:30:47.132Z,4.10
2023-04-02T03:33:32.808Z,4.10
2023-04-02T03:36:13.177Z,4.00
2023-04-02T03:38:47.442Z,3.70
2023-04-02T03:41:24.208Z,4.10
2023-04-02T03:44:03.126Z,4.00
2023-04-02T03:46:46.958Z,3.70
2023-04-02T03:49:40.753Z,4.30
2023-04-02T03:52:26.959Z,3.50
2023-04-02T03:54:57.601Z,4.90
2023-04-02T03:57:30.439Z,4.50
2023-04-02T04:03:16.980Z,3.90
2023-04-02T04:06:27.616Z,4.10
2023-04-02T04:09:06.177Z,12.00
2023-04-02T04:11:38.024Z,9.80
2023-04-02T04:14:18.304Z,3.70
2023-04-02T04:16:57.782Z,2.90
2023-04-02T04:19:35.369Z,2.50
2023-04-02T04:22:19.244Z,2.40
2023-04-02T04:24:47.949Z,2.40
2023-04-02T04:27:33.627Z,2.30
2023-04-02T04:30:42.507Z,2.70
2023-04-02T04:33:16.986Z,2.40
2023-04-02T04:35:49.685Z,2.50
2023-04-02T04:41:16.045Z,2.10
2023-04-02T04:44:06.845Z,2.10
2023-04-02T04:46:47.098Z,2.30
2023-04-02T04:49:36.598Z,2.90
2023-04-02T04:52:23.856Z,2.40
2023-04-02T04:54:52.452Z,2.80
2023-04-02T04:57:41.995Z,2.80
2023-04-02T05:00:32.898Z,3.10
2023-04-02T05:03:24.278Z,2.60
2023-04-02T05:05:52.886Z,3.00
2023-04-02T05:08:27.216Z,2.60
2023-04-02T05:11:11.253Z,2.20
2023-04-02T05:13:58.761Z,2.50
2023-04-02T05:16:32.037Z,2.20
2023-04-02T05:19:11.402Z,2.40
2023-04-02T05:22:21.453Z,2.30
2023-04-02T05:25:31.025Z,2.30
2023-04-02T05:28:47.423Z,2.40
2023-04-02T05:31:23.276Z,2.10
2023-04-02T05:33:51.528Z,2.20
2023-04-02T05:36:29.318Z,2.20
2023-04-02T05:38:59.357Z,2.50
2023-04-02T05:44:29.005Z,2.00
2023-04-02T05:47:23.142Z,2.40
2023-04-02T05:50:08.623Z,2.30
2023-04-02T05:52:42.265Z,2.20
2023-04-02T05:55:13.141Z,2.50
2023-04-02T05:58:13.464Z,2.50
2023-04-02T06:01:15.444Z,2.40
2023-04-02T06:03:59.379Z,2.10
2023-04-02T06:06:39.557Z,2.40
2023-04-02T06:09:18.158Z,1.90
2023-04-02T06:11:51.525Z,2.00
2023-04-02T06:14:19.683Z,2.30
2023-04-02T06:16:48.340Z,2.00
2023-04-02T06:19:24.056Z,5.00
2023-04-02T06:21:53.324Z,2.40
2023-04-02T06:24:24.552Z,3.60
2023-04-02T06:26:58.748Z,2.80
2023-04-02T06:29:38.377Z,2.40
2023-04-02T06:32:08.895Z,2.30
2023-04-02T06:34:39.323Z,2.00
2023-04-02T06:37:41.070Z,3.00
2023-04-02T06:40:45.542Z,2.90
2023-04-02T06:43:36.454Z,14.40
2023-04-02T06:46:15.623Z,5.80
2023-04-02T06:48:44.269Z,8.90
2023-04-02T06:51:14.864Z,9.20
2023-04-02T06:53:50.679Z,16.80
2023-04-02T06:56:37.262Z,7.80
2023-04-02T06:59:09.491Z,8.80
2023-04-02T07:02:01.411Z,10.90
2023-04-02T07:04:29.774Z,8.60
2023-04-02T07:06:58.175Z,3.00
2023-04-02T07:09:26.950Z,3.80
2023-04-02T07:11:54.844Z,3.50
2023-04-02T07:14:22.785Z,1.90
2023-04-02T07:16:51.225Z,2.20
2023-04-02T07:19:22.406Z,2.70
2023-04-02T07:21:50.580Z,2.20
2023-04-02T07:24:18.670Z,2.30
2023-04-02T07:26:48.267Z,3.20
2023-04-02T07:29:17.554Z,2.20
2023-04-02T07:31:45.826Z,2.90
2023-04-02T07:34:13.933Z,2.50
2023-04-02T07:36:41.846Z,3.40
2023-04-02T07:39:10.183Z,3.30
2023-04-02T07:41:59.347Z,2.50
2023-04-02T07:44:28.797Z,2.50
2023-04-02T07:46:56.778Z,2.60
2023-04-02T07:49:24.931Z,2.50
2023-04-02T07:51:53.400Z,2.90
2023-04-02T07:54:21.296Z,2.70
2023-04-02T07:56:52.094Z,2.40
2023-04-02T07:59:19.986Z,2.20
2023-04-02T08:01:48.338Z,2.50
2023-04-02T08:04:19.704Z,2.50
2023-04-02T08:06:48.814Z,3.50
2023-04-02T08:09:17.311Z,4.90
2023-04-02T08:11:46.544Z,4.30
2023-04-02T08:14:15.064Z,3.50
2023-04-02T08:16:55.802Z,3.00
2023-04-02T08:19:24.092Z,3.10
2023-04-02T08:21:52.759Z,3.30
2023-04-02T08:24:21.511Z,3.30
2023-04-02T08:26:50.084Z,3.20
2023-04-02T08:29:18.092Z,2.30
2023-04-02T08:31:46.193Z,2.40
2023-04-02T08:34:14.120Z,2.70
2023-04-02T08:36:45.233Z,2.40
2023-04-02T08:39:13.528Z,2.60
2023-04-02T08:42:01.020Z,2.30
2023-04-02T08:45:08.104Z,2.10
2023-04-02T08:47:44.354Z,2.80
2023-04-02T08:50:34.213Z,2.10
2023-04-02T08:53:11.389Z,2.10
2023-04-02T08:56:06.008Z,2.20
2023-04-02T08:58:50.352Z,2.30
2023-04-02T09:01:35.057Z,2.40
2023-04-02T09:04:07.559Z,2.00
2023-04-02T09:06:36.567Z,2.80
2023-04-02T09:09:05.346Z,2.60
2023-04-02T09:11:53.693Z,2.40
2023-04-02T09:14:47.555Z,1.80
2023-04-02T09:17:23.765Z,2.20
2023-04-02T09:20:10.525Z,3.20
2023-04-02T09:22:39.713Z,3.50
2023-04-02T09:25:16.209Z,2.60
2023-04-02T09:27:49.841Z,2.50
2023-04-02T09:30:30.246Z,2.60
2023-04-02T09:33:07.878Z,2.60
2023-04-02T09:35:57.976Z,2.50
2023-04-02T09:38:34.195Z,3.30
2023-04-02T09:41:08.056Z,2.70
2023-04-02T09:43:39.789Z,3.20
2023-04-02T09:46:23.894Z,2.50
2023-04-02T09:48:58.522Z,2.70
2023-04-02T09:51:33.322Z,2.80
2023-04-02T09:54:04.735Z,2.10
2023-04-02T09:57:06.940Z,3.70
2023-04-02T09:59:50.219Z,4.00
2023-04-02T10:02:29.124Z,3.10
2023-04-02T10:05:03.625Z,3.20
2023-04-02T10:07:43.948Z,2.80
2023-04-02T10:10:36.824Z,3.10
2023-04-02T10:16:12.143Z,2.50
2023-04-02T10:18:58.832Z,3.10
2023-04-02T10:21:36.119Z,3.20
2023-04-02T10:24:13.155Z,2.60
2023-04-02T10:27:11.650Z,2.50
2023-04-02T10:29:56.078Z,4.50
2023-04-02T10:32:48.831Z,4.20
2023-04-02T10:35:41.330Z,3.70
2023-04-02T10:38:34.031Z,3.30
2023-04-02T10:41:57.192Z,2.70
2023-04-02T10:45:17.914Z,7.00
2023-04-02T10:48:09.577Z,4.10
2023-04-02T10:50:55.718Z,4.40
2023-04-02T10:53:57.113Z,3.80
2023-04-02T10:56:33.138Z,2.90
2023-04-02T10:59:30.760Z,4.80
2023-04-02T11:02:04.931Z,8.40
2023-04-02T11:04:47.894Z,11.80
2023-04-02T11:09:52.153Z,4.80
2023-04-02T11:12:42.467Z,12.70
2023-04-02T11:15:22.059Z,5.50
2023-04-02T11:17:55.010Z,5.00
2023-04-02T11:20:59.798Z,6.50
2023-04-02T11:24:01.157Z,4.30
2023-04-02T11:27:05.620Z,4.00
2023-04-02T11:30:07.214Z,5.30
2023-04-02T11:33:44.271Z,4.80
2023-04-02T11:36:54.384Z,4.10
2023-04-02T11:39:59.920Z,3.80
2023-04-02T11:42:33.971Z,4.20
2023-04-02T11:45:23.089Z,3.90
2023-04-02T11:48:00.795Z,4.10
2023-04-02T11:50:32.699Z,3.40
2023-04-02T11:53:11.732Z,3.90
2023-04-02T11:55:46.048Z,5.20
2023-04-02T11:58:35.183Z,3.90
2023-04-02T12:09:23.808Z,2.90
2023-04-02T12:31:19.157Z,2.80
2023-04-02T12:33:46.072Z,4.10
2023-04-02T12:36:15.649Z,8.00
2023-04-02T12:39:01.981Z,2.50
2023-04-02T12:53:40.748Z,3.90
2023-04-02T12:56:18.827Z,3.30
2023-04-02T12:59:02.095Z,4.10
2023-04-02T13:01:32.395Z,4.30
2023-04-02T13:04:09.208Z,5.40
2023-04-02T13:06:38.801Z,3.10
2023-04-02T13:09:28.929Z,3.20
2023-04-02T13:11:57.597Z,2.90
2023-04-02T13:14:26.245Z,3.00
2023-04-02T13:16:55.009Z,2.30
2023-04-02T13:19:33.697Z,2.30
2023-04-02T13:22:03.399Z,2.50
2023-04-02T13:24:33.200Z,3.10
2023-04-02T13:27:03.161Z,2.30
2023-04-02T13:29:36.313Z,6.20
2023-04-02T13:32:13.347Z,4.30
2023-04-02T13:34:41.245Z,5.00
2023-04-02T13:37:12.627Z,3.40
2023-04-02T13:39:40.806Z,3.70
2023-04-02T13:42:11.770Z,10.10
2023-04-02T13:44:39.978Z,4.30
2023-04-02T13:47:14.424Z,6.90
2023-04-02T13:49:42.303Z,5.50
2023-04-02T13:58:45.833Z,3.40
2023-04-02T14:01:14.601Z,2.90
2023-04-02T14:03:46.917Z,3.50
2023-04-02T14:06:32.108Z,2.70
2023-04-02T14:09:09.983Z,3.10
2023-04-02T14:12:01.292Z,3.70
2023-04-02T14:15:00.796Z,2.80
2023-04-02T14:18:12.008Z,4.00
2023-04-02T14:21:31.375Z,2.60
2023-04-02T14:24:16.194Z,3.10
2023-04-02T14:27:39.711Z,3.10
2023-04-02T14:31:01.425Z,2.70
2023-04-02T14:34:02.597Z,6.50
2023-04-02T14:36:58.699Z,3.90
2023-04-02T14:39:54.519Z,3.90
2023-04-02T14:42:28.834Z,4.40
2023-04-02T14:45:14.155Z,4.70
2023-04-02T14:47:55.796Z,4.70
2023-04-02T14:50:40.075Z,4.10
2023-04-02T14:53:16.175Z,3.90
2023-04-02T14:55:47.924Z,4.50
2023-04-02T14:58:30.950Z,5.00
2023-04-02T15:03:51.243Z,5.00
2023-04-02T15:06:44.337Z,3.60
2023-04-02T15:09:27.974Z,3.10
2023-04-02T15:12:23.379Z,3.40
2023-04-02T15:15:02.724Z,3.90
2023-04-02T15:17:32.066Z,7.00
2023-04-02T15:20:16.904Z,4.10
2023-04-02T15:23:03.439Z,4.10
2023-04-02T15:25:51.219Z,4.10
2023-04-02T15:28:37.259Z,3.80
2023-04-02T15:31:14.604Z,3.90
2023-04-02T15:34:06.391Z,3.40
2023-04-02T15:37:06.211Z,3.20
2023-04-02T15:39:55.500Z,3.30
2023-04-02T15:42:44.676Z,3.30
2023-04-02T15:45:12.769Z,3.20
2023-04-02T15:47:40.856Z,3.50
2023-04-02T15:50:40.956Z,3.80
2023-04-02T15:53:59.017Z,4.10
2023-04-02T15:56:59.870Z,5.10
2023-04-02T15:59:52.754Z,4.00
2023-04-02T16:02:38.346Z,5.80
2023-04-02T16:05:24.285Z,6.60
2023-04-02T16:08:12.174Z,5.90
2023-04-02T16:10:43.269Z,5.50
2023-04-02T16:13:31.735Z,5.90
2023-04-02T16:16:23.230Z,8.20
2023-04-02T16:19:26.661Z,6.70
2023-04-02T16:22:06.372Z,4.80
2023-04-02T16:24:34.893Z,8.20
2023-04-02T16:27:30.855Z,7.00
2023-04-02T16:30:50.163Z,4.60
2023-04-02T16:33:53.401Z,6.00
2023-04-02T16:36:33.290Z,8.50
2023-04-02T16:39:23.447Z,6.70
2023-04-02T16:42:17.571Z,7.20
2023-04-02T16:45:22.084Z,5.50
2023-04-02T16:48:07.420Z,6.30
2023-04-02T16:51:17.788Z,7.00
2023-04-02T16:54:48.623Z,13.60
2023-04-02T16:57:42.631Z,5.60
2023-04-02T17:00:17.287Z,10.90
2023-04-02T17:03:10.168Z,10.10
2023-04-02T17:05:59.710Z,5.30
2023-04-02T17:08:33.112Z,10.20
2023-04-02T17:11:19.561Z,9.90
2023-04-02T17:13:56.726Z,8.10
2023-04-02T17:16:42.241Z,7.10
2023-04-02T17:19:13.498Z,7.70
2023-04-02T17:21:52.325Z,7.00
2023-04-02T17:24:41.095Z,6.50
2023-04-02T17:27:30.639Z,17.40
2023-04-02T17:30:04.942Z,8.50
2023-04-02T17:32:33.817Z,7.00
2023-04-02T17:35:44.979Z,4.90
2023-04-02T17:39:12.105Z,5.90
2023-04-02T17:41:44.217Z,4.70
2023-04-02T17:45:03.176Z,6.20
2023-04-02T17:47:37.600Z,5.50
2023-04-02T17:50:17.777Z,8.10
2023-04-02T17:53:26.174Z,15.80
2023-04-02T17:56:06.613Z,10.50
2023-04-02T17:59:02.251Z,5.90
2023-04-02T18:01:50.119Z,5.50
2023-04-02T18:05:00.934Z,4.50
2023-04-02T18:08:05.985Z,5.60
2023-04-02T18:11:16.938Z,6.10
2023-04-02T18:14:03.548Z,5.50
2023-04-02T18:16:42.828Z,8.30
2023-04-02T18:19:22.822Z,5.30
2023-04-02T18:22:34.587Z,5.00
2023-04-02T18:25:24.872Z,5.00
2023-04-02T18:27:55.762Z,5.20
2023-04-02T18:34:20.186Z,4.60
2023-04-02T18:37:07.936Z,4.40
2023-04-02T18:40:14.365Z,5.60
2023-04-02T18:43:27.102Z,5.90
2023-04-02T18:46:30.217Z,6.00
2023-04-02T18:49:19.715Z,4.70
2023-04-02T18:51:54.671Z,4.90
2023-04-02T18:54:38.824Z,4.60
2023-04-02T18:57:25.166Z,5.30
2023-04-02T19:00:21.199Z,5.20
2023-04-02T19:03:18.655Z,5.00
2023-04-02T19:06:14.043Z,5.20
2023-04-02T19:08:59.114Z,4.80
2023-04-02T19:11:31.443Z,4.40
2023-04-02T19:14:18.041Z,6.20
2023-04-02T19:17:27.231Z,4.00
2023-04-02T19:20:13.602Z,4.70
2023-04-02T19:23:29.858Z,7.20
2023-04-02T19:26:09.632Z,4.20
2023-04-02T19:29:03.996Z,3.30
2023-04-02T19:31:55.910Z,3.60
2023-04-02T19:34:40.528Z,3.80
2023-04-02T19:37:14.347Z,4.60
2023-04-02T19:40:26.979Z,3.80
2023-04-02T19:42:55.163Z,3.60
2023-04-02T19:45:44.210Z,3.90
2023-04-02T19:48:23.053Z,3.80
2023-04-02T19:50:51.370Z,3.30
2023-04-02T19:53:20.026Z,3.80
2023-04-02T19:55:48.949Z,3.20
2023-04-02T19:58:33.407Z,3.20
2023-04-02T20:01:05.152Z,3.20
2023-04-02T20:03:36.805Z,3.30
2023-04-02T20:06:05.277Z,4.20
2023-04-02T20:08:33.498Z,5.40
2023-04-02T20:11:01.934Z,3.70
2023-04-02T20:13:30.022Z,3.50
2023-04-02T20:16:03.060Z,3.30
2023-04-02T20:18:32.145Z,3.60
2023-04-02T20:21:05.732Z,3.80
2023-04-02T20:23:35.836Z,3.90
2023-04-02T20:26:05.493Z,4.70
2023-04-02T20:28:33.830Z,3.90
2023-04-02T20:31:08.296Z,4.50
2023-04-02T20:33:37.291Z,3.90
2023-04-02T20:36:14.898Z,3.80
2023-04-02T20:38:46.897Z,4.60
2023-04-02T20:41:17.649Z,3.90
2023-04-02T20:43:45.851Z,3.80
2023-04-02T20:46:14.115Z,3.40
2023-04-02T20:48:42.446Z,3.60
2023-04-02T20:51:14.330Z,3.10
2023-04-02T20:53:43.159Z,2.90
2023-04-02T20:56:16.981Z,3.50
2023-04-02T20:58:45.290Z,4.00
2023-04-02T21:01:27.372Z,3.00
2023-04-02T21:04:01.768Z,2.80
2023-04-02T21:06:33.287Z,3.30
2023-04-02T21:09:08.486Z,3.30
2023-04-02T21:11:37.386Z,3.30
2023-04-02T21:14:05.566Z,3.10
2023-04-02T21:16:33.964Z,2.80
2023-04-02T21:19:08.378Z,3.30
2023-04-02T21:21:38.321Z,2.90
2023-04-02T21:24:08.577Z,2.70
2023-04-02T21:26:40.026Z,3.20
2023-04-02T21:29:08.206Z,3.10
2023-04-02T21:31:38.756Z,3.00
2023-04-02T21:34:07.654Z,3.30
2023-04-02T21:36:40.200Z,3.30
2023-04-02T21:39:17.786Z,2.80
2023-04-02T21:41:50.312Z,2.40
2023-04-02T21:44:22.698Z,2.10
2023-04-02T21:46:53.093Z,2.50
2023-04-02T21:49:23.307Z,3.00
2023-04-02T21:51:51.924Z,3.50
2023-04-02T21:54:20.024Z,3.60
2023-04-02T21:56:49.040Z,4.10
2023-04-02T21:59:18.403Z,4.00
2023-04-02T22:01:49.601Z,3.00
2023-04-02T22:04:24.489Z,2.80
2023-04-02T22:06:53.608Z,3.20
2023-04-02T22:09:24.862Z,2.60
2023-04-02T22:12:01.879Z,3.40
2023-04-02T22:14:30.862Z,4.50
2023-04-02T22:16:59.084Z,3.60
2023-04-02T22:19:27.842Z,2.80
2023-04-02T22:21:56.933Z,2.50
2023-04-02T22:24:25.429Z,2.70
2023-04-02T22:26:53.865Z,2.40
2023-04-02T22:29:22.284Z,3.00
2023-04-02T22:31:50.498Z,2.70
2023-04-02T22:34:18.586Z,2.30
2023-04-02T22:36:46.750Z,2.50
2023-04-02T22:39:16.227Z,2.70
2023-04-02T22:41:44.195Z,2.50
2023-04-02T22:44:15.985Z,2.60
2023-04-02T22:46:44.137Z,3.70
2023-04-02T22:49:12.579Z,2.40
2023-04-02T22:51:40.588Z,3.40
2023-04-02T22:54:08.603Z,3.80
2023-04-02T22:56:37.761Z,2.40
2023-04-02T22:59:05.975Z,3.10
2023-04-02T23:01:36.459Z,2.90
2023-04-02T23:04:05.522Z,2.40
2023-04-02T23:06:33.933Z,2.90
2023-04-02T23:09:02.019Z,3.20
2023-04-02T23:11:30.078Z,2.70
2023-04-02T23:13:58.599Z,3.00
2023-04-02T23:16:28.991Z,2.10
2023-04-02T23:18:57.700Z,2.90
2023-04-02T23:21:26.934Z,2.80
2023-04-02T23:23:55.421Z,2.20
2023-04-02T23:26:29.567Z,3.00
2023-04-02T23:28:59.775Z,2.50
2023-04-02T23:31:28.313Z,2.80
2023-04-02T23:33:56.358Z,3.00
2023-04-02T23:36:31.821Z,2.80
2023-04-02T23:39:04.473Z,2.40
2023-04-02T23:44:00.224Z,2.30
2023-04-02T23:46:29.668Z,2.30
2023-04-02T23:48:58.872Z,2.50
2023-04-02T23:51:28.873Z,2.50
2023-04-02T23:53:56.996Z,3.20
2023-04-02T23:56:25.939Z,3.30
2023-04-02T23:58:53.861Z,4.80
